createdAt,value
2023-02-17T00:02:27.699Z,37.70
2023-02-17T00:05:30.714Z,40.57
2023-02-17T00:08:33.767Z,36.77
2023-02-17T00:11:38.121Z,42.63
2023-02-17T00:14:41.614Z,43.37
2023-02-17T00:17:47.585Z,46.07
2023-02-17T00:20:51.165Z,44.60
2023-02-17T00:23:55.099Z,44.47
2023-02-17T00:26:59.657Z,43.73
2023-02-17T00:30:03.218Z,48.23
2023-02-17T00:33:06.716Z,43.40
2023-02-17T00:36:14.140Z,52.53
2023-02-17T00:39:18.697Z,52.17
2023-02-17T00:42:26.354Z,47.97
2023-02-17T00:45:29.497Z,48.07
2023-02-17T00:48:33.527Z,46.33
2023-02-17T00:51:36.628Z,48.27
2023-02-17T00:54:41.951Z,47.63
2023-02-17T00:57:47.529Z,46.40
2023-02-17T01:00:50.856Z,48.97
2023-02-17T01:03:54.096Z,46.93
2023-02-17T01:06:57.254Z,52.97
2023-02-17T01:10:00.429Z,54.63
2023-02-17T01:13:06.486Z,51.60
2023-02-17T01:16:19.033Z,47.70
2023-02-17T01:19:22.378Z,50.07
2023-02-17T01:22:26.892Z,46.10
2023-02-17T01:25:32.091Z,48.40
2023-02-17T01:28:36.859Z,49.73
2023-02-17T01:31:41.402Z,48.90
2023-02-17T01:34:48.938Z,45.47
2023-02-17T01:37:52.015Z,48.63
2023-02-17T01:40:55.757Z,49.07
2023-02-17T01:44:14.334Z,55.07
2023-02-17T01:47:17.743Z,50.50
2023-02-17T01:50:25.968Z,50.03
2023-02-17T01:53:37.205Z,48.53
2023-02-17T01:56:44.716Z,52.93
2023-02-17T01:59:52.862Z,51.83
2023-02-17T02:02:59.093Z,54.00
2023-02-17T02:06:05.879Z,42.73
2023-02-17T02:09:17.991Z,49.97
2023-02-17T02:12:23.906Z,52.87
2023-02-17T02:15:35.392Z,52.27
2023-02-17T02:18:50.345Z,52.80
2023-02-17T02:23:08.819Z,51.83
2023-02-17T02:26:54.632Z,53.00
2023-02-17T02:30:29.593Z,52.30
2023-02-17T02:33:41.616Z,52.27
2023-02-17T02:36:50.415Z,56.03
2023-02-17T02:39:56.925Z,52.50
2023-02-17T02:43:06.217Z,56.47
2023-02-17T02:46:09.889Z,52.60
2023-02-17T02:49:16.624Z,53.70
2023-02-17T02:52:31.176Z,55.73
2023-02-17T02:55:52.262Z,57.80
2023-02-17T02:59:08.062Z,55.10
2023-02-17T03:02:20.632Z,55.67
2023-02-17T03:05:33.815Z,56.17
2023-02-17T03:08:43.887Z,51.93
2023-02-17T03:11:48.782Z,62.17
2023-02-17T03:14:58.358Z,59.23
2023-02-17T03:18:03.736Z,64.57
2023-02-17T03:21:16.114Z,68.77
2023-02-17T03:24:20.030Z,60.13
2023-02-17T03:27:23.606Z,56.73
2023-02-17T03:30:26.749Z,59.47
2023-02-17T03:33:30.461Z,64.23
2023-02-17T03:36:38.617Z,58.83
2023-02-17T03:39:41.763Z,61.37
2023-02-17T03:42:45.246Z,59.60
2023-02-17T03:45:48.404Z,62.53
2023-02-17T03:48:54.305Z,66.20
2023-02-17T03:51:59.513Z,65.03
2023-02-17T03:55:02.832Z,59.53
2023-02-17T03:58:06.051Z,61.97
2023-02-17T04:01:12.257Z,60.80
2023-02-17T04:04:15.426Z,58.33
2023-02-17T04:07:20.142Z,60.30
2023-02-17T04:10:23.321Z,65.53
2023-02-17T04:13:26.884Z,67.30
2023-02-17T04:16:30.164Z,62.37
2023-02-17T04:19:36.957Z,61.70
2023-02-17T04:22:58.010Z,59.10
2023-02-17T04:26:01.705Z,67.50
2023-02-17T04:29:07.188Z,64.00
2023-02-17T04:32:10.490Z,55.43
2023-02-17T04:35:15.752Z,59.43
2023-02-17T04:38:20.689Z,58.00
2023-02-17T04:41:24.204Z,60.37
2023-02-17T04:44:27.743Z,58.17
2023-02-17T04:47:31.014Z,58.93
2023-02-17T04:50:34.290Z,59.47
2023-02-17T04:53:38.825Z,61.37
2023-02-17T04:56:42.445Z,61.73
2023-02-17T04:59:45.952Z,53.27
2023-02-17T05:02:49.516Z,52.80
2023-02-17T05:05:55.713Z,54.70
2023-02-17T05:09:01.815Z,54.80
2023-02-17T05:12:07.840Z,60.03
2023-02-17T05:15:13.138Z,60.17
2023-02-17T05:18:16.462Z,55.80
2023-02-17T05:21:20.996Z,56.33
2023-02-17T05:24:25.544Z,58.93
2023-02-17T05:27:28.878Z,60.37
2023-02-17T05:30:32.581Z,64.27
2023-02-17T05:33:36.292Z,64.27
2023-02-17T05:36:42.389Z,66.37
2023-02-17T05:39:47.372Z,57.80
2023-02-17T05:42:50.818Z,56.83
2023-02-17T05:45:54.455Z,59.70
2023-02-17T05:48:57.894Z,59.13
2023-02-17T05:52:05.309Z,62.13
2023-02-17T05:55:17.955Z,68.23
2023-02-17T05:58:21.144Z,57.00
2023-02-17T06:01:24.214Z,57.93
2023-02-17T06:04:29.127Z,59.27
2023-02-17T06:07:32.669Z,62.30
2023-02-17T06:10:37.209Z,55.70
2023-02-17T06:13:42.593Z,60.93
2023-02-17T06:16:45.806Z,59.73
2023-02-17T06:19:49.854Z,60.13
2023-02-17T06:22:53.072Z,57.33
2023-02-17T06:25:57.723Z,55.03
2023-02-17T06:29:01.015Z,56.03
2023-02-17T06:32:04.445Z,58.77
2023-02-17T06:35:08.540Z,57.93
2023-02-17T06:38:11.853Z,50.97
2023-02-17T06:41:16.507Z,53.13
2023-02-17T06:44:20.198Z,50.33
2023-02-17T06:47:23.434Z,50.77
2023-02-17T06:50:26.709Z,47.87
2023-02-17T06:53:30.133Z,52.40
2023-02-17T06:56:34.762Z,46.03
2023-02-17T06:59:38.031Z,48.10
2023-02-17T07:02:41.689Z,46.73
2023-02-17T07:05:44.991Z,48.50
2023-02-17T07:08:48.331Z,47.90
2023-02-17T07:11:52.908Z,44.00
2023-02-17T07:14:56.177Z,42.87
2023-02-17T07:18:00.231Z,46.37
2023-02-17T07:21:03.343Z,42.27
2023-02-17T07:24:06.990Z,47.87
2023-02-17T07:27:11.933Z,44.43
2023-02-17T07:30:15.791Z,41.60
2023-02-17T07:33:24.166Z,39.17
2023-02-17T07:36:27.332Z,37.83
2023-02-17T07:39:30.837Z,39.07
2023-02-17T07:42:35.287Z,41.03
2023-02-17T07:45:39.548Z,42.80
2023-02-17T07:48:42.927Z,38.93
2023-02-17T07:51:50.252Z,32.97
2023-02-17T07:54:59.431Z,31.37
2023-02-17T07:58:03.940Z,36.57
2023-02-17T08:01:10.022Z,33.63
2023-02-17T08:04:13.255Z,36.13
2023-02-17T08:07:16.884Z,33.83
2023-02-17T08:10:40.845Z,32.93
2023-02-17T08:13:46.191Z,35.03
2023-02-17T08:16:49.383Z,34.07
2023-02-17T08:19:53.059Z,32.40
2023-02-17T08:22:56.137Z,29.93
2023-02-17T08:25:59.639Z,31.03
2023-02-17T08:29:05.078Z,34.43
2023-02-17T08:32:08.826Z,32.70
2023-02-17T08:35:12.097Z,32.70
2023-02-17T08:38:16.345Z,30.47
2023-02-17T08:41:23.137Z,29.10
2023-02-17T08:44:27.837Z,29.60
2023-02-17T08:47:31.069Z,31.53
2023-02-17T08:50:34.818Z,31.40
2023-02-17T08:53:38.373Z,35.60
2023-02-17T08:56:42.566Z,29.63
2023-02-17T08:59:48.209Z,29.83
2023-02-17T09:03:17.349Z,30.73
2023-02-17T09:06:28.253Z,36.50
2023-02-17T09:09:39.894Z,32.37
2023-02-17T09:12:44.147Z,30.83
2023-02-17T09:15:50.097Z,30.70
2023-02-17T09:18:54.295Z,35.20
2023-02-17T09:22:03.541Z,29.43
2023-02-17T09:25:08.412Z,29.93
2023-02-17T09:28:12.204Z,31.77
2023-02-17T09:31:36.820Z,34.63
2023-02-17T09:34:53.555Z,36.27
2023-02-17T09:38:14.878Z,31.60
2023-02-17T09:41:36.192Z,32.03
2023-02-17T09:50:43.948Z,32.53
2023-02-17T09:53:59.961Z,30.33
2023-02-17T09:57:05.169Z,32.83
2023-02-17T10:00:17.562Z,32.57
2023-02-17T10:03:31.280Z,35.77
2023-02-17T10:06:42.197Z,32.60
2023-02-17T10:09:49.520Z,33.10
2023-02-17T10:12:58.849Z,33.23
2023-02-17T10:16:08.509Z,30.33
2023-02-17T10:19:21.472Z,32.47
2023-02-17T10:22:37.268Z,33.37
2023-02-17T10:25:59.656Z,40.63
2023-02-17T10:29:16.556Z,31.80
2023-02-17T10:32:25.799Z,30.30
2023-02-17T10:35:52.503Z,34.17
2023-02-17T10:39:04.858Z,38.80
2023-02-17T10:42:17.714Z,36.23
2023-02-17T10:45:30.144Z,39.13
2023-02-17T10:48:40.653Z,33.93
2023-02-17T10:51:46.966Z,36.33
2023-02-17T10:54:57.709Z,36.10
2023-02-17T10:58:08.103Z,35.10
2023-02-17T11:01:11.923Z,34.03
2023-02-17T11:04:18.656Z,35.70
2023-02-17T11:07:36.430Z,37.57
2023-02-17T11:10:43.447Z,35.77
2023-02-17T11:14:08.620Z,38.07
2023-02-17T11:17:22.925Z,38.10
2023-02-17T11:20:37.134Z,37.87
2023-02-17T11:23:50.966Z,33.67
2023-02-17T11:27:06.885Z,29.07
2023-02-17T11:30:18.616Z,34.13
2023-02-17T11:33:26.005Z,32.33
2023-02-17T11:36:32.284Z,33.37
2023-02-17T11:39:41.096Z,27.50
2023-02-17T11:42:45.442Z,28.73
2023-02-17T11:46:00.843Z,27.73
2023-02-17T11:49:45.077Z,24.70
2023-02-17T11:53:10.236Z,28.60
2023-02-17T11:56:18.274Z,24.37
2023-02-17T11:59:50.029Z,26.73
2023-02-17T12:03:37.171Z,25.60
2023-02-17T12:08:02.359Z,24.70
2023-02-17T12:11:21.580Z,22.07
2023-02-17T12:14:50.909Z,23.40
2023-02-17T12:18:07.064Z,21.67
2023-02-17T12:21:23.822Z,26.83
2023-02-17T12:24:46.581Z,16.97
2023-02-17T12:28:15.477Z,21.13
2023-02-17T12:31:48.657Z,20.00
2023-02-17T12:35:01.429Z,18.50
2023-02-17T12:38:18.052Z,18.33
2023-02-17T12:41:27.857Z,17.23
2023-02-17T12:44:42.685Z,15.50
2023-02-17T12:47:56.173Z,16.37
2023-02-17T12:51:07.013Z,20.80
2023-02-17T12:54:19.959Z,15.90
2023-02-17T12:57:26.628Z,13.97
2023-02-17T13:00:35.715Z,13.93
2023-02-17T13:03:42.162Z,13.47
2023-02-17T13:06:53.115Z,12.80
2023-02-17T13:10:00.740Z,12.03
2023-02-17T13:13:07.676Z,13.00
2023-02-17T13:16:13.128Z,14.53
2023-02-17T13:19:29.199Z,12.10
2023-02-17T13:33:53.942Z,10.23
2023-02-17T13:37:16.392Z,9.63
2023-02-17T13:40:44.083Z,13.57
2023-02-17T13:43:48.279Z,11.20
2023-02-17T13:47:00.178Z,9.83
2023-02-17T13:50:07.054Z,10.93
2023-02-17T13:53:36.020Z,8.30
2023-02-17T13:56:44.111Z,9.13
2023-02-17T13:59:47.466Z,8.50
2023-02-17T14:02:54.872Z,9.70
2023-02-17T14:06:05.725Z,8.60
2023-02-17T14:09:46.247Z,7.77
2023-02-17T14:13:13.339Z,7.33
2023-02-17T14:16:36.907Z,7.70
2023-02-17T14:20:12.503Z,8.07
2023-02-17T14:23:16.138Z,8.97
2023-02-17T14:26:38.459Z,9.70
2023-02-17T14:29:52.431Z,7.67
2023-02-17T14:33:23.449Z,8.33
2023-02-17T14:36:42.853Z,8.53
2023-02-17T14:39:53.370Z,8.87
2023-02-17T14:43:32.552Z,8.97
2023-02-17T14:46:54.917Z,10.83
2023-02-17T14:50:25.620Z,10.63
2023-02-17T14:53:53.943Z,10.83
2023-02-17T14:57:11.691Z,10.23
2023-02-17T15:00:25.269Z,14.17
2023-02-17T15:03:37.804Z,12.53
2023-02-17T15:06:55.667Z,17.47
2023-02-17T15:10:36.916Z,14.20
2023-02-17T15:14:01.846Z,12.80
2023-02-17T15:24:45.807Z,18.03
2023-02-17T15:27:55.523Z,13.37
2023-02-17T15:31:00.867Z,15.37
2023-02-17T15:34:20.559Z,17.83
2023-02-17T15:37:27.374Z,15.77
2023-02-17T15:40:49.200Z,16.57
2023-02-17T15:44:09.497Z,17.13
2023-02-17T15:47:26.227Z,20.23
2023-02-17T15:50:46.419Z,18.63
2023-02-17T15:53:53.640Z,17.30
2023-02-17T15:56:59.058Z,18.90
2023-02-17T16:00:11.301Z,20.63
2023-02-17T16:03:26.351Z,21.67
2023-02-17T16:06:43.052Z,18.93
2023-02-17T16:09:54.442Z,19.63
2023-02-17T16:13:07.036Z,21.07
2023-02-17T16:16:19.591Z,21.03
2023-02-17T16:19:28.456Z,19.50
2023-02-17T16:22:33.586Z,18.17
2023-02-17T16:25:39.780Z,19.33
2023-02-17T16:28:48.999Z,15.23
2023-02-17T16:32:01.452Z,14.90
2023-02-17T16:35:18.463Z,14.40
2023-02-17T16:38:31.110Z,18.20
2023-02-17T16:41:34.533Z,14.70
2023-02-17T16:44:42.847Z,16.53
2023-02-17T16:47:53.034Z,13.83
2023-02-17T16:50:57.111Z,20.33
2023-02-17T16:54:09.947Z,11.17
2023-02-17T16:57:19.587Z,11.47
2023-02-17T17:00:31.342Z,11.40
2023-02-17T17:03:36.917Z,9.40
2023-02-17T17:06:50.689Z,13.27
2023-02-17T17:10:15.202Z,10.43
2023-02-17T17:13:20.330Z,10.53
2023-02-17T17:16:28.243Z,9.77
2023-02-17T17:19:32.190Z,9.30
2023-02-17T17:22:36.361Z,9.73
2023-02-17T17:25:51.473Z,7.67
2023-02-17T17:33:20.694Z,9.40
2023-02-17T17:36:38.179Z,8.03
2023-02-17T17:39:46.635Z,8.70
2023-02-17T17:42:57.984Z,8.73
2023-02-17T17:46:20.956Z,8.83
2023-02-17T17:49:28.746Z,9.20
2023-02-17T17:52:33.505Z,9.63
2023-02-17T17:55:56.900Z,7.67
2023-02-17T17:59:15.297Z,6.93
2023-02-17T18:02:23.378Z,7.53
2023-02-17T18:05:52.490Z,8.27
2023-02-17T18:09:31.752Z,9.43
2023-02-17T18:12:52.315Z,11.47
2023-02-17T18:16:19.123Z,9.87
2023-02-17T18:19:36.464Z,10.83
2023-02-17T18:22:40.525Z,9.23
2023-02-17T18:26:06.706Z,10.43
2023-02-17T18:29:15.654Z,9.87
2023-02-17T18:32:31.203Z,7.40
2023-02-17T18:35:47.309Z,10.47
2023-02-17T18:38:57.987Z,7.87
2023-02-17T18:42:11.737Z,6.53
2023-02-17T18:45:30.664Z,9.17
2023-02-17T18:49:02.752Z,6.13
2023-02-17T18:52:15.026Z,8.17
2023-02-17T18:55:41.215Z,11.17
2023-02-17T18:58:48.326Z,10.57
2023-02-17T19:02:09.118Z,9.07
2023-02-17T19:05:40.421Z,7.93
2023-02-17T19:08:56.894Z,7.33
2023-02-17T19:12:21.453Z,7.53
2023-02-17T19:15:37.997Z,8.27
2023-02-17T19:18:58.959Z,5.80
2023-02-17T19:22:17.219Z,6.97
2023-02-17T19:25:26.576Z,7.97
2023-02-17T19:28:34.163Z,5.00
2023-02-17T19:31:49.682Z,9.93
2023-02-17T19:35:05.088Z,8.10
2023-02-17T19:38:15.149Z,7.40
2023-02-17T19:41:36.054Z,7.47
2023-02-17T19:44:49.547Z,10.13
2023-02-17T19:48:01.864Z,7.37
2023-02-17T19:51:37.626Z,5.77
2023-02-17T19:55:18.412Z,8.73
2023-02-17T19:58:38.537Z,7.30
2023-02-17T20:06:36.895Z,7.10
2023-02-17T20:09:56.326Z,8.40
2023-02-17T20:13:05.936Z,15.67
2023-02-17T20:16:22.029Z,8.73
2023-02-17T20:19:32.159Z,10.03
2023-02-17T20:22:48.847Z,10.67
2023-02-17T20:26:13.718Z,9.30
2023-02-17T20:29:26.353Z,11.40
2023-02-17T20:32:40.208Z,11.93
2023-02-17T20:36:01.802Z,6.97
2023-02-17T20:39:22.976Z,8.73
2023-02-17T20:42:49.783Z,10.80
2023-02-17T20:46:02.781Z,7.47
2023-02-17T20:49:23.206Z,7.17
2023-02-17T20:52:29.082Z,10.70
2023-02-17T20:55:40.643Z,8.90
2023-02-17T20:58:46.465Z,9.87
2023-02-17T21:05:16.797Z,12.80
2023-02-17T21:08:22.900Z,13.27
2023-02-17T21:11:41.124Z,9.00
2023-02-17T21:14:54.424Z,11.93
2023-02-17T21:18:02.219Z,15.37
2023-02-17T21:21:18.676Z,11.30
2023-02-17T21:24:37.485Z,13.80
2023-02-17T21:28:06.548Z,12.30
2023-02-17T21:31:27.333Z,14.30
2023-02-17T21:34:51.717Z,12.03
2023-02-17T21:38:36.238Z,14.53
2023-02-17T21:46:18.431Z,12.53
2023-02-17T21:49:43.152Z,14.20
2023-02-17T21:54:08.389Z,16.70
2023-02-17T21:57:38.076Z,12.33
2023-02-17T22:04:11.998Z,13.47
2023-02-17T22:07:23.958Z,15.17
2023-02-17T22:11:33.389Z,10.30
2023-02-17T22:15:06.526Z,11.23
2023-02-17T22:18:36.710Z,12.53
2023-02-17T22:22:00.800Z,15.17
2023-02-17T22:25:08.801Z,13.83
2023-02-17T22:28:24.494Z,10.13
2023-02-17T22:32:13.268Z,10.37
2023-02-17T22:35:22.446Z,18.60
2023-02-17T22:38:26.677Z,18.83
2023-02-17T22:41:32.437Z,18.80
2023-02-17T22:44:37.617Z,18.43
2023-02-17T22:47:40.943Z,16.77
2023-02-17T22:50:44.221Z,15.23
2023-02-17T23:01:55.432Z,10.20
2023-02-17T23:04:35.795Z,10.93
2023-02-17T23:07:52.964Z,13.30
2023-02-17T23:11:10.618Z,17.33
2023-02-17T23:14:20.656Z,16.07
2023-02-17T23:17:28.491Z,11.93
2023-02-17T23:20:39.965Z,19.30
2023-02-17T23:24:20.323Z,12.00
2023-02-17T23:27:49.235Z,14.67
2023-02-17T23:30:54.268Z,17.17
2023-02-17T23:34:00.934Z,19.23
2023-02-17T23:40:35.351Z,16.60
2023-02-17T23:44:04.508Z,24.60
2023-02-17T23:47:17.639Z,20.80
2023-02-17T23:50:24.106Z,18.13
2023-02-17T23:53:45.573Z,15.53
2023-02-17T23:56:53.638Z,18.63
